Time;durP1;ratioP1;P1;durP2;ratioP2;P2;SDS_P1;SDS_P2;PMS_P1;PMS_P2;Temp;Humidity;BMP_temperature;BMP_pressure;BME280_temperature;BME280_humidity;BME280_pressure;Samples;Min_cycle;Max_cycle;Signal;HPM_P1;HPM_P2
2023/04/29 00:00:05;;;;;;;4.38;2.05;;;10.40;89.00;;;;;;5113755;28;20039;-69
2023/04/29 00:02:31;;;;;;;3.70;2.30;;;10.30;88.80;;;;;;5113403;28;20138;-70
2023/04/29 00:04:57;;;;;;;3.95;2.33;;;10.30;88.80;;;;;;5113462;28;20039;-70
2023/04/29 00:07:22;;;;;;;3.63;2.03;;;10.30;88.80;;;;;;5093903;28;20047;-69
2023/04/29 00:09:48;;;;;;;4.38;2.30;;;10.30;88.90;;;;;;5094918;28;20470;-69
2023/04/29 00:12:14;;;;;;;3.85;2.22;;;10.30;88.90;;;;;;5113338;28;20048;-69
2023/04/29 00:14:42;;;;;;;4.10;2.20;;;10.30;88.90;;;;;;5093575;28;20039;-70
2023/04/29 00:17:07;;;;;;;5.15;2.60;;;10.40;88.90;;;;;;5092933;28;20048;-69
2023/04/29 00:19:33;;;;;;;4.32;2.40;;;10.30;88.90;;;;;;5112926;28;20050;-69
2023/04/29 00:21:59;;;;;;;4.65;2.58;;;10.20;88.90;;;;;;5112691;28;20129;-69
2023/04/29 00:24:24;;;;;;;3.88;2.03;;;10.30;89.00;;;;;;5112840;28;20038;-69
2023/04/29 00:26:50;;;;;;;4.00;2.47;;;10.20;88.80;;;;;;5077548;28;20038;-69
2023/04/29 00:29:16;;;;;;;4.13;2.20;;;10.20;88.90;;;;;;5113095;28;20461;-69
2023/04/29 00:31:41;;;;;;;4.00;2.28;;;10.20;89.00;;;;;;5112803;28;20556;-69
2023/04/29 00:34:07;;;;;;;4.55;2.28;;;10.20;89.00;;;;;;5094918;28;20043;-69
2023/04/29 00:36:33;;;;;;;4.65;2.60;;;10.20;89.00;;;;;;5112383;28;20065;-69
2023/04/29 00:38:58;;;;;;;4.03;2.30;;;10.10;88.90;;;;;;5112904;28;20070;-69
2023/04/29 00:41:25;;;;;;;3.97;2.25;;;10.10;88.90;;;;;;5094107;28;20071;-69
2023/04/29 00:43:51;;;;;;;4.30;2.40;;;10.10;89.00;;;;;;5112375;28;20454;-69
2023/04/29 00:46:17;;;;;;;4.15;2.28;;;10.10;89.10;;;;;;5093339;28;20036;-69
2023/04/29 00:48:42;;;;;;;5.88;2.53;;;10.10;89.10;;;;;;5112450;28;20065;-70
2023/04/29 00:51:09;;;;;;;3.83;2.20;;;10.10;89.10;;;;;;5112687;28;20050;-69
2023/04/29 00:53:35;;;;;;;4.15;2.20;;;10.00;89.00;;;;;;5112724;28;20493;-69
2023/04/29 00:56:02;;;;;;;4.97;2.53;;;10.10;89.10;;;;;;5092688;28;20055;-70
2023/04/29 00:58:32;;;;;;;3.53;1.75;;;10.10;89.20;;;;;;5112080;28;20043;-70
2023/04/29 01:00:59;;;;;;;3.70;2.10;;;10.00;89.10;;;;;;5114628;28;20099;-70
2023/04/29 01:03:27;;;;;;;3.78;2.00;;;10.00;89.10;;;;;;5115882;28;20027;-70
2023/04/29 01:06:10;;;;;;;3.50;1.90;;;10.10;89.20;;;;;;5115835;28;20489;-70
2023/04/29 01:08:57;;;;;;;5.43;3.10;;;10.10;89.20;;;;;;5096151;28;20452;-70
2023/04/29 01:11:33;;;;;;;4.95;2.28;;;10.10;89.20;;;;;;5081877;28;20044;-70
2023/04/29 01:14:02;;;;;;;4.80;2.38;;;10.00;89.20;;;;;;5115727;28;20188;-70
2023/04/29 01:16:50;;;;;;;3.30;1.83;;;10.00;89.20;;;;;;5115750;28;20400;-71
2023/04/29 01:19:39;;;;;;;4.18;2.08;;;10.10;89.30;;;;;;5114793;28;20047;-70
2023/04/29 01:22:04;;;;;;;3.70;2.15;;;10.10;89.20;;;;;;5080525;28;20378;-70
2023/04/29 01:24:30;;;;;;;3.75;2.05;;;10.10;89.10;;;;;;5115823;28;20201;-70
2023/04/29 01:27:04;;;;;;;3.15;1.60;;;10.10;89.10;;;;;;5097304;28;20043;-70
2023/04/29 01:29:40;;;;;;;3.40;1.65;;;10.00;89.10;;;;;;5115407;28;20397;-70
2023/04/29 01:32:12;;;;;;;2.45;1.60;;;10.10;89.20;;;;;;5115472;28;20058;-70
2023/04/29 01:35:02;;;;;;;3.83;2.00;;;10.10;89.20;;;;;;5115256;28;20043;-71
2023/04/29 01:37:41;;;;;;;3.40;1.90;;;10.10;89.20;;;;;;5115567;28;20131;-70
2023/04/29 01:40:17;;;;;;;4.18;2.40;;;10.10;89.10;;;;;;5115388;28;20092;-71
2023/04/29 01:43:04;;;;;;;5.82;2.10;;;10.10;89.10;;;;;;5115416;28;20100;-71
2023/04/29 01:45:33;;;;;;;3.75;2.00;;;10.00;88.90;;;;;;5115737;28;20047;-70
2023/04/29 01:47:59;;;;;;;4.43;2.35;;;10.10;89.10;;;;;;5115306;28;20047;-70
2023/04/29 01:50:25;;;;;;;3.95;2.08;;;10.00;89.00;;;;;;5115435;28;20063;-70
2023/04/29 01:52:51;;;;;;;3.50;1.80;;;10.00;89.10;;;;;;5115563;28;20071;-70
2023/04/29 01:55:16;;;;;;;2.70;1.50;;;10.00;89.10;;;;;;5115137;28;20035;-70
2023/04/29 01:57:43;;;;;;;3.65;1.95;;;9.90;89.10;;;;;;5115222;28;20481;-70
2023/04/29 02:00:10;;;;;;;3.25;1.83;;;10.00;89.20;;;;;;5115334;28;20489;-71
2023/04/29 02:02:36;;;;;;;4.70;2.20;;;10.00;89.10;;;;;;5115008;28;20088;-70
2023/04/29 02:05:02;;;;;;;4.63;2.50;;;10.10;89.20;;;;;;5115403;28;20074;-71
2023/04/29 02:07:27;;;;;;;4.10;2.22;;;9.90;89.10;;;;;;5114819;28;20044;-70
2023/04/29 02:09:53;;;;;;;4.18;2.13;;;9.90;89.10;;;;;;5114812;28;20039;-70
2023/04/29 02:12:18;;;;;;;3.72;2.00;;;10.00;89.20;;;;;;5114839;28;20068;-71
2023/04/29 02:14:46;;;;;;;5.03;2.30;;;10.00;89.30;;;;;;5114722;28;20413;-70
2023/04/29 02:17:13;;;;;;;4.25;2.22;;;10.00;89.30;;;;;;5095697;28;20040;-71
2023/04/29 02:19:38;;;;;;;5.60;2.55;;;10.00;89.20;;;;;;5114679;28;20085;-71
2023/04/29 02:22:04;;;;;;;3.63;2.00;;;9.90;89.10;;;;;;5094307;28;20044;-70
2023/04/29 02:24:30;;;;;;;4.38;2.28;;;10.10;89.20;;;;;;5115150;28;20044;-71
2023/04/29 02:26:56;;;;;;;5.25;2.60;;;10.00;89.20;;;;;;5115171;28;20031;-71
2023/04/29 02:29:21;;;;;;;4.13;2.08;;;10.00;89.20;;;;;;5114674;28;20042;-70
2023/04/29 02:31:47;;;;;;;4.82;2.65;;;9.90;89.10;;;;;;5114685;28;20055;-70
2023/04/29 02:34:12;;;;;;;4.30;2.22;;;10.00;89.20;;;;;;5114782;28;20058;-70
2023/04/29 02:36:38;;;;;;;3.78;1.83;;;9.90;89.10;;;;;;5114607;28;20066;-70
2023/04/29 02:39:04;;;;;;;5.00;2.17;;;10.00;89.20;;;;;;5114422;28;20081;-70
2023/04/29 02:41:29;;;;;;;3.88;1.85;;;10.00;89.20;;;;;;5114885;28;20134;-70
2023/04/29 02:43:55;;;;;;;3.50;1.88;;;10.00;89.20;;;;;;5094302;28;20047;-70
2023/04/29 02:46:21;;;;;;;3.05;1.80;;;9.90;89.20;;;;;;5114758;28;20106;-70
2023/04/29 02:48:47;;;;;;;4.32;2.45;;;10.00;89.20;;;;;;5094949;28;20481;-70
2023/04/29 02:51:15;;;;;;;4.40;2.30;;;10.00;89.20;;;;;;5114145;28;20035;-70
2023/04/29 02:53:40;;;;;;;4.22;2.25;;;10.00;89.10;;;;;;5095973;28;20075;-71
2023/04/29 02:56:06;;;;;;;3.15;1.80;;;9.90;89.10;;;;;;5114277;28;20115;-71
2023/04/29 02:58:32;;;;;;;4.60;2.20;;;9.90;89.10;;;;;;5114107;28;20044;-71
2023/04/29 03:00:57;;;;;;;4.10;1.90;;;9.90;89.10;;;;;;5078784;28;20449;-71
2023/04/29 03:03:23;;;;;;;3.58;2.00;;;9.90;89.10;;;;;;5114541;28;20438;-70
2023/04/29 03:05:49;;;;;;;3.28;1.67;;;9.90;89.20;;;;;;5114681;28;20104;-71
2023/04/29 03:08:14;;;;;;;3.03;1.77;;;9.90;89.10;;;;;;5078973;28;20075;-71
2023/04/29 03:10:40;;;;;;;3.25;1.60;;;10.00;89.20;;;;;;5114033;28;20035;-70
2023/04/29 03:13:05;;;;;;;2.65;1.50;;;10.00;89.10;;;;;;5114090;28;20416;-70
2023/04/29 03:15:31;;;;;;;3.95;1.80;;;10.00;89.20;;;;;;5113992;28;20031;-70
2023/04/29 03:18:00;;;;;;;2.05;1.33;;;9.90;89.10;;;;;;5113775;28;20044;-70
2023/04/29 03:20:26;;;;;;;2.70;1.42;;;9.90;89.20;;;;;;5114238;28;20125;-70
2023/04/29 03:22:51;;;;;;;2.42;1.55;;;10.00;89.30;;;;;;5093382;28;20044;-70
2023/04/29 03:25:17;;;;;;;3.03;1.80;;;9.90;89.10;;;;;;5113795;28;20039;-71
2023/04/29 03:27:43;;;;;;;4.05;1.95;;;9.90;89.20;;;;;;5113606;28;20504;-71
2023/04/29 03:30:09;;;;;;;3.72;1.90;;;10.00;89.30;;;;;;5114163;28;20040;-71
2023/04/29 03:32:35;;;;;;;3.90;1.90;;;9.90;89.20;;;;;;5113359;28;20134;-71
2023/04/29 03:35:00;;;;;;;2.67;1.70;;;10.00;89.20;;;;;;5094530;28;20047;-71
2023/04/29 03:37:26;;;;;;;2.60;1.40;;;9.90;89.20;;;;;;5093829;28;20521;-70
2023/04/29 03:39:52;;;;;;;3.92;2.10;;;9.90;89.20;;;;;;5095104;28;20038;-71
2023/04/29 03:42:17;;;;;;;4.50;2.30;;;9.90;89.20;;;;;;5113260;28;20127;-71
2023/04/29 03:44:43;;;;;;;3.03;1.80;;;9.90;89.20;;;;;;5095723;28;20035;-71
2023/04/29 03:47:08;;;;;;;3.80;2.03;;;9.90;89.20;;;;;;5095792;28;20044;-71
2023/04/29 03:49:34;;;;;;;3.35;1.80;;;9.90;89.20;;;;;;5113782;28;20066;-71
2023/04/29 03:52:00;;;;;;;4.40;1.88;;;9.80;89.10;;;;;;5093738;28;20516;-70
2023/04/29 03:54:26;;;;;;;3.50;2.03;;;9.90;89.10;;;;;;5078791;28;20396;-71
2023/04/29 03:56:52;;;;;;;4.15;2.17;;;9.90;89.10;;;;;;5113169;28;20048;-70
2023/04/29 03:59:18;;;;;;;3.70;2.30;;;9.90;89.20;;;;;;5113151;28;20401;-70
2023/04/29 04:01:44;;;;;;;3.83;2.08;;;9.90;89.10;;;;;;5093036;28;20055;-71
2023/04/29 04:04:10;;;;;;;3.67;2.05;;;9.90;89.20;;;;;;5113358;28;20392;-70
2023/04/29 04:06:35;;;;;;;3.47;1.88;;;10.00;89.20;;;;;;5094047;28;20040;-70
2023/04/29 04:09:01;;;;;;;3.17;1.77;;;9.90;89.10;;;;;;5113701;28;20036;-70
2023/04/29 04:11:27;;;;;;;3.85;1.77;;;9.90;89.20;;;;;;5113198;28;20048;-70
2023/04/29 04:13:52;;;;;;;4.28;1.90;;;10.00;89.60;;;;;;5113572;28;20036;-71
2023/04/29 04:16:18;;;;;;;4.60;2.47;;;9.90;89.20;;;;;;5113089;28;20069;-70
2023/04/29 04:18:43;;;;;;;3.58;1.90;;;9.90;89.20;;;;;;5113624;28;20512;-70
2023/04/29 04:21:11;;;;;;;2.22;1.50;;;9.90;89.20;;;;;;5112906;28;20051;-71
2023/04/29 04:23:40;;;;;;;2.88;1.80;;;9.90;89.20;;;;;;5095003;28;20046;-71
2023/04/29 04:26:06;;;;;;;3.95;1.63;;;9.90;89.20;;;;;;5109580;28;20069;-70
2023/04/29 04:28:32;;;;;;;2.90;1.58;;;9.90;89.10;;;;;;5113258;28;20473;-72
2023/04/29 04:30:57;;;;;;;2.70;1.60;;;9.90;89.10;;;;;;5113018;28;20127;-71
2023/04/29 04:33:24;;;;;;;2.45;1.45;;;10.00;89.10;;;;;;5113382;28;20131;-72
2023/04/29 04:35:50;;;;;;;2.67;1.65;;;10.00;89.10;;;;;;5077000;28;20122;-72
2023/04/29 04:38:16;;;;;;;2.83;1.60;;;9.90;89.00;;;;;;5112994;28;20070;-70
2023/04/29 04:40:42;;;;;;;2.92;1.52;;;9.90;89.00;;;;;;5094720;28;20044;-70
2023/04/29 04:43:07;;;;;;;4.85;2.72;;;9.90;89.00;;;;;;5113417;28;20039;-70
2023/04/29 04:45:33;;;;;;;3.30;2.22;;;9.90;89.00;;;;;;5113248;28;20044;-70
2023/04/29 04:47:59;;;;;;;3.13;1.90;;;9.90;89.00;;;;;;5093688;28;20040;-70
2023/04/29 04:50:28;;;;;;;5.47;2.90;;;9.90;89.00;;;;;;5112642;28;20035;-70
2023/04/29 04:52:54;;;;;;;3.63;2.05;;;9.80;88.90;;;;;;5113130;28;20031;-70
2023/04/29 04:55:20;;;;;;;4.20;2.20;;;9.80;88.90;;;;;;5112631;28;20031;-70
2023/04/29 04:57:45;;;;;;;2.92;1.60;;;9.80;88.80;;;;;;5112375;28;20050;-70
2023/04/29 05:00:11;;;;;;;3.13;1.90;;;9.80;88.80;;;;;;5111587;28;20043;-71
2023/04/29 05:02:37;;;;;;;3.55;1.80;;;9.80;88.70;;;;;;5093383;28;20039;-70
2023/04/29 05:05:03;;;;;;;3.30;1.92;;;9.80;88.70;;;;;;5094750;28;20040;-70
2023/04/29 05:07:29;;;;;;;2.25;1.55;;;9.90;88.70;;;;;;5112524;28;20499;-70
2023/04/29 05:09:54;;;;;;;3.55;1.88;;;9.80;88.60;;;;;;5094075;28;20075;-70
2023/04/29 05:12:20;;;;;;;3.42;1.95;;;9.80;88.60;;;;;;5112937;28;20065;-70
2023/04/29 05:14:45;;;;;;;3.22;2.28;;;9.90;88.60;;;;;;5113110;28;20461;-70
2023/04/29 05:17:11;;;;;;;3.03;1.70;;;9.80;88.50;;;;;;5077229;28;20508;-70
2023/04/29 05:19:37;;;;;;;2.17;1.45;;;9.90;88.60;;;;;;5112447;28;20093;-70
2023/04/29 05:22:02;;;;;;;2.72;1.60;;;9.90;88.60;;;;;;5112454;28;20040;-70
2023/04/29 05:24:29;;;;;;;2.70;1.80;;;9.90;88.50;;;;;;5112294;28;20047;-71
2023/04/29 05:26:54;;;;;;;2.38;1.45;;;10.00;88.50;;;;;;5093969;28;20504;-70
2023/04/29 05:29:20;;;;;;;2.50;1.50;;;10.00;88.40;;;;;;5112406;28;20027;-70
2023/04/29 05:31:46;;;;;;;2.65;1.50;;;10.00;88.30;;;;;;5112716;28;20089;-70
2023/04/29 05:34:12;;;;;;;1.17;1.08;;;10.00;88.20;;;;;;5112287;28;20036;-71
2023/04/29 05:36:37;;;;;;;1.95;1.33;;;10.10;88.30;;;;;;5112269;28;20542;-71
2023/04/29 05:39:03;;;;;;;1.92;1.40;;;10.00;88.20;;;;;;5093920;28;20031;-71
2023/04/29 05:41:29;;;;;;;1.85;1.40;;;10.10;88.20;;;;;;5093008;28;20036;-71
2023/04/29 05:43:54;;;;;;;1.73;1.20;;;10.20;88.20;;;;;;5112090;28;20393;-71
2023/04/29 05:46:21;;;;;;;2.22;1.40;;;10.20;88.10;;;;;;5113274;28;20043;-71
2023/04/29 05:48:47;;;;;;;4.05;1.92;;;10.20;88.00;;;;;;5097249;28;20047;-71
2023/04/29 05:51:13;;;;;;;5.00;2.17;;;10.30;88.00;;;;;;5115689;28;20062;-71
2023/04/29 05:53:39;;;;;;;4.15;1.95;;;10.30;87.90;;;;;;5097755;28;20043;-71
2023/04/29 05:56:07;;;;;;;3.50;1.85;;;10.30;87.90;;;;;;5116005;28;20044;-71
2023/04/29 05:58:33;;;;;;;2.78;1.70;;;10.30;87.90;;;;;;5115318;28;20039;-70
2023/04/29 06:00:59;;;;;;;2.50;1.70;;;10.30;87.80;;;;;;5115258;28;20044;-71
2023/04/29 06:03:25;;;;;;;3.33;1.80;;;10.30;87.70;;;;;;5115284;28;20072;-71
2023/04/29 06:05:50;;;;;;;3.08;1.77;;;10.40;87.70;;;;;;5115568;28;20075;-69
2023/04/29 06:08:16;;;;;;;2.33;1.50;;;10.40;87.60;;;;;;5115161;28;20044;-70
2023/04/29 06:10:42;;;;;;;2.78;1.73;;;10.40;87.50;;;;;;5115338;28;20046;-70
2023/04/29 06:13:07;;;;;;;2.35;1.60;;;10.50;87.50;;;;;;5079693;28;20043;-70
2023/04/29 06:15:33;;;;;;;2.35;1.50;;;10.50;87.40;;;;;;5115472;28;20045;-70
2023/04/29 06:17:59;;;;;;;3.55;1.83;;;10.50;87.40;;;;;;5115510;28;20447;-70
2023/04/29 06:20:25;;;;;;;2.83;1.75;;;10.60;87.40;;;;;;5096386;28;20054;-70
2023/04/29 06:22:50;;;;;;;3.38;2.00;;;10.60;87.30;;;;;;5115420;28;20035;-70
2023/04/29 06:25:16;;;;;;;3.67;1.73;;;10.60;87.20;;;;;;5115026;28;20031;-70
2023/04/29 06:27:42;;;;;;;3.90;1.85;;;10.60;87.20;;;;;;5115372;28;20070;-70
2023/04/29 06:30:08;;;;;;;2.47;1.70;;;10.70;87.10;;;;;;5095656;28;20043;-69
2023/04/29 06:32:33;;;;;;;2.72;1.67;;;10.60;87.00;;;;;;5114951;28;20077;-72
2023/04/29 06:35:00;;;;;;;3.13;1.75;;;10.70;87.10;;;;;;5096747;28;20035;-71
2023/04/29 06:37:27;;;;;;;1.77;1.35;;;10.70;87.10;;;;;;5096768;28;20532;-71
2023/04/29 06:39:53;;;;;;;2.65;1.60;;;10.80;87.20;;;;;;5095403;28;20035;-71
2023/04/29 06:42:18;;;;;;;2.10;1.48;;;10.70;87.10;;;;;;5114593;28;20126;-71
2023/04/29 06:44:44;;;;;;;2.33;1.60;;;10.80;87.10;;;;;;5096316;28;20057;-71
2023/04/29 06:47:10;;;;;;;3.40;2.10;;;10.80;87.00;;;;;;5115176;28;20368;-71
2023/04/29 06:49:35;;;;;;;2.65;1.70;;;10.80;86.80;;;;;;5114728;28;20120;-71
2023/04/29 06:52:01;;;;;;;2.85;1.95;;;10.80;86.80;;;;;;5096318;28;20066;-71
2023/04/29 06:54:27;;;;;;;2.78;1.83;;;10.90;86.90;;;;;;5114327;28;20066;-71
2023/04/29 06:56:53;;;;;;;2.22;1.42;;;10.90;86.80;;;;;;5115012;28;20473;-71
2023/04/29 06:59:18;;;;;;;2.92;1.65;;;10.90;86.80;;;;;;5095054;28;20092;-71
2023/04/29 07:01:44;;;;;;;2.63;1.63;;;11.00;86.70;;;;;;5114306;28;20481;-71
2023/04/29 07:04:10;;;;;;;3.40;1.77;;;11.00;86.70;;;;;;5114536;28;20035;-69
2023/04/29 07:06:36;;;;;;;3.35;1.80;;;11.00;86.50;;;;;;5114214;28;20040;-71
2023/04/29 07:09:02;;;;;;;2.88;1.80;;;11.10;86.50;;;;;;5114147;28;20081;-69
2023/04/29 07:11:28;;;;;;;2.58;1.80;;;11.10;86.40;;;;;;5114368;28;20093;-69
2023/04/29 07:13:53;;;;;;;3.13;1.60;;;11.10;86.40;;;;;;5114439;28;20052;-71
2023/04/29 07:16:20;;;;;;;3.10;1.77;;;11.10;86.20;;;;;;5095141;28;20075;-71
2023/04/29 07:18:47;;;;;;;3.17;1.52;;;11.20;86.20;;;;;;5114644;28;20126;-69
2023/04/29 07:21:12;;;;;;;3.08;1.58;;;11.30;86.10;;;;;;5114650;28;20044;-71
2023/04/29 07:23:38;;;;;;;4.13;2.15;;;11.40;86.10;;;;;;5114116;28;20042;-72
2023/04/29 07:26:12;;;;;;;2.80;1.65;;;11.40;85.90;;;;;;5114012;28;20048;-71
2023/04/29 07:28:38;;;;;;;3.22;1.80;;;11.50;85.90;;;;;;5114320;28;20122;-71
2023/04/29 07:31:05;;;;;;;2.40;1.42;;;11.40;85.80;;;;;;5113879;28;20050;-71
2023/04/29 07:33:30;;;;;;;5.75;1.88;;;11.50;85.80;;;;;;5093922;28;20125;-69
2023/04/29 07:35:56;;;;;;;3.45;1.88;;;11.60;85.70;;;;;;5113786;28;20496;-69
2023/04/29 07:38:22;;;;;;;2.22;1.50;;;11.60;85.40;;;;;;5113908;28;20484;-69
2023/04/29 07:40:47;;;;;;;2.47;1.52;;;11.70;85.50;;;;;;5113789;28;20071;-71
2023/04/29 07:43:13;;;;;;;2.95;1.50;;;11.80;85.30;;;;;;5114202;28;20040;-70
2023/04/29 07:45:39;;;;;;;2.60;1.75;;;11.90;85.20;;;;;;5094430;28;20048;-70
2023/04/29 07:48:05;;;;;;;1.85;1.48;;;11.90;85.00;;;;;;5113636;28;20104;-69
2023/04/29 07:50:34;;;;;;;3.00;1.60;;;12.00;84.80;;;;;;5113352;28;20489;-68
2023/04/29 07:53:00;;;;;;;2.65;1.45;;;12.10;84.70;;;;;;5113715;28;20051;-69
2023/04/29 07:55:27;;;;;;;1.75;1.30;;;12.30;84.70;;;;;;5113402;28;20039;-71
2023/04/29 07:57:53;;;;;;;2.47;1.65;;;12.20;84.60;;;;;;5114087;28;20066;-69
2023/04/29 08:00:18;;;;;;;2.70;1.60;;;12.30;84.40;;;;;;5061607;28;20046;-68
2023/04/29 08:02:44;;;;;;;2.30;1.63;;;12.40;84.30;;;;;;5094352;28;20469;-69
2023/04/29 08:05:10;;;;;;;2.08;1.40;;;12.50;84.30;;;;;;5113559;28;20061;-69
2023/04/29 08:07:35;;;;;;;2.45;1.60;;;12.50;84.00;;;;;;5113393;28;20051;-68
2023/04/29 08:10:01;;;;;;;2.05;1.45;;;12.60;84.00;;;;;;5094578;28;20047;-69
2023/04/29 08:12:26;;;;;;;1.83;1.42;;;12.80;83.90;;;;;;5113462;28;20073;-69
2023/04/29 08:14:52;;;;;;;2.53;1.60;;;12.70;83.70;;;;;;5094901;28;20031;-69
2023/04/29 08:17:18;;;;;;;2.92;1.60;;;12.80;83.60;;;;;;5113156;28;20098;-72
2023/04/29 08:19:43;;;;;;;1.75;1.35;;;12.90;83.50;;;;;;5113217;28;20054;-71
2023/04/29 08:22:11;;;;;;;2.67;1.40;;;13.00;83.40;;;;;;5113076;28;20043;-69
2023/04/29 08:24:36;;;;;;;1.98;1.10;;;13.00;83.20;;;;;;5113508;28;21397;-70
2023/04/29 08:27:07;;;;;;;1.30;1.10;;;13.10;83.20;;;;;;5113076;28;20036;-72
2023/04/29 08:29:33;;;;;;;2.78;1.40;;;13.10;83.20;;;;;;5112961;28;20046;-71
2023/04/29 08:31:59;;;;;;;2.35;1.30;;;13.30;83.10;;;;;;5112986;28;20043;-70
2023/04/29 08:34:25;;;;;;;2.67;1.63;;;13.30;82.90;;;;;;5094860;28;20488;-72
2023/04/29 08:36:51;;;;;;;2.13;1.48;;;13.40;82.70;;;;;;5094719;28;20142;-72
2023/04/29 08:39:16;;;;;;;2.10;1.40;;;13.50;82.70;;;;;;5095095;28;20441;-70
2023/04/29 08:41:48;;;;;;;2.05;1.48;;;13.60;82.50;;;;;;5094345;28;20066;-70
2023/04/29 08:44:13;;;;;;;;;;;13.60;82.30;;;;;;5113523;28;20039;-71
2023/04/29 08:46:40;;;;;;;1.55;1.20;;;13.70;82.40;;;;;;5112699;28;20322;-69
2023/04/29 08:49:06;;;;;;;1.45;1.10;;;13.70;82.20;;;;;;5093187;28;20050;-71
2023/04/29 08:51:33;;;;;;;1.65;1.17;;;13.80;82.10;;;;;;5112805;28;20477;-68
2023/04/29 08:53:59;;;;;;;2.50;1.17;;;13.90;82.00;;;;;;5112958;28;20055;-69
2023/04/29 08:56:26;;;;;;;1.55;1.30;;;14.00;81.70;;;;;;5094537;28;20047;-70
2023/04/29 08:58:54;;;;;;;1.48;1.30;;;14.00;81.70;;;;;;5076078;28;20123;-70
2023/04/29 09:01:21;;;;;;;1.63;1.30;;;14.10;81.80;;;;;;5092591;28;20044;-71
2023/04/29 09:04:01;;;;;;;1.70;1.27;;;14.20;81.50;;;;;;5112688;28;20078;-70
2023/04/29 09:06:26;;;;;;;2.25;1.40;;;14.30;81.10;;;;;;5093393;28;20064;-70
2023/04/29 09:08:53;;;;;;;1.27;1.15;;;14.40;81.30;;;;;;5112562;28;20047;-70
2023/04/29 09:11:19;;;;;;;2.58;1.75;;;14.40;81.00;;;;;;5112473;28;20131;-71
2023/04/29 09:13:44;;;;;;;3.08;1.30;;;14.50;80.70;;;;;;5112512;28;20047;-71
2023/04/29 09:16:11;;;;;;;1.88;1.38;;;14.50;80.60;;;;;;5112547;28;20173;-71
2023/04/29 09:18:46;;;;;;;2.08;1.42;;;14.50;80.70;;;;;;5112270;28;20043;-71
2023/04/29 09:21:14;;;;;;;2.63;1.60;;;14.70;80.70;;;;;;5113276;28;20505;-71
2023/04/29 09:23:40;;;;;;;1.60;1.10;;;14.70;80.50;;;;;;5116440;28;20115;-71
2023/04/29 09:26:06;;;;;;;3.00;1.52;;;14.80;80.30;;;;;;5116049;28;20119;-71
2023/04/29 09:28:32;;;;;;;2.67;1.50;;;14.80;80.10;;;;;;5115944;28;20168;-72
2023/04/29 09:30:58;;;;;;;1.83;1.38;;;14.80;79.90;;;;;;5115873;28;20036;-71
2023/04/29 09:33:27;;;;;;;1.38;1.10;;;14.80;80.00;;;;;;5116305;28;20043;-72
2023/04/29 09:35:53;;;;;;;1.92;1.30;;;14.80;80.00;;;;;;5115727;28;20565;-72
2023/04/29 09:38:19;;;;;;;1.45;1.20;;;14.70;80.20;;;;;;5115761;28;20067;-71
2023/04/29 09:40:45;;;;;;;1.63;0.93;;;14.80;80.50;;;;;;5115863;28;20044;-71
2023/04/29 09:43:13;;;;;;;1.40;1.02;;;14.80;80.40;;;;;;5116051;28;20506;-71
2023/04/29 09:45:42;;;;;;;1.17;1.08;;;14.90;80.20;;;;;;5116096;28;20035;-71
2023/04/29 09:48:09;;;;;;;1.20;1.10;;;14.90;80.10;;;;;;5115977;28;20052;-71
2023/04/29 09:50:36;;;;;;;1.20;1.02;;;15.00;79.90;;;;;;5115450;28;20043;-72
2023/04/29 09:53:03;;;;;;;1.35;1.20;;;15.00;79.70;;;;;;5095893;28;20226;-71
2023/04/29 09:55:30;;;;;;;2.17;1.25;;;15.00;79.80;;;;;;5115954;28;20048;-71
2023/04/29 09:57:57;;;;;;;1.75;1.00;;;15.00;79.80;;;;;;5115494;28;20054;-71
2023/04/29 10:00:24;;;;;;;1.73;1.30;;;15.10;79.50;;;;;;5115493;28;20044;-71
2023/04/29 10:02:52;;;;;;;1.55;1.10;;;15.20;79.30;;;;;;5115400;28;20108;-71
2023/04/29 10:05:20;;;;;;;1.60;1.05;;;15.30;79.10;;;;;;5115853;28;20074;-71
2023/04/29 10:07:48;;;;;;;1.27;1.00;;;15.30;78.70;;;;;;5115892;28;20036;-71
2023/04/29 10:10:13;;;;;;;1.45;1.00;;;15.30;78.80;;;;;;5097335;28;20106;-71
2023/04/29 10:12:40;;;;;;;2.50;1.20;;;15.30;78.90;;;;;;5115207;28;20044;-71
2023/04/29 10:15:22;;;;;;;1.70;1.02;;;15.20;79.50;;;;;;5115585;28;20132;-71
2023/04/29 10:17:54;;;;;;;0.82;0.82;;;15.20;78.90;;;;;;5094802;28;20040;-71
2023/04/29 10:20:23;;;;;;;1.15;1.00;;;15.20;79.00;;;;;;5115087;28;20048;-71
2023/04/29 10:22:51;;;;;;;0.82;0.82;;;15.20;78.80;;;;;;5110883;28;20495;-72
2023/04/29 10:25:20;;;;;;;1.80;1.30;;;15.20;78.80;;;;;;5096429;28;20058;-71
2023/04/29 10:27:47;;;;;;;1.10;0.90;;;15.20;78.70;;;;;;5114813;28;20047;-71
2023/04/29 10:30:16;;;;;;;0.85;0.75;;;15.20;78.50;;;;;;5079114;28;20085;-72
2023/04/29 10:32:45;;;;;;;0.98;0.88;;;15.20;78.70;;;;;;5113398;28;20054;-69
2023/04/29 10:35:13;;;;;;;0.77;0.75;;;15.10;78.70;;;;;;5115325;28;20048;-70
2023/04/29 10:37:40;;;;;;;1.13;0.80;;;15.20;78.70;;;;;;5114736;28;20036;-71
2023/04/29 10:40:14;;;;;;;0.73;0.73;;;15.30;78.50;;;;;;5114859;28;20127;-70
2023/04/29 10:42:52;;;;;;;1.15;0.90;;;15.40;78.20;;;;;;5094574;28;20101;-70
2023/04/29 10:45:19;;;;;;;1.10;0.85;;;15.40;78.10;;;;;;5115031;28;20040;-70
2023/04/29 10:48:11;;;;;;;1.05;0.90;;;15.30;78.10;;;;;;5095010;28;20036;-70
2023/04/29 10:50:59;;;;;;;1.05;0.80;;;15.20;78.20;;;;;;5096316;28;20557;-70
2023/04/29 10:53:26;;;;;;;2.28;1.10;;;15.30;78.40;;;;;;5115152;28;20092;-70
2023/04/29 10:55:56;;;;;;;0.93;0.75;;;15.20;78.40;;;;;;5095601;28;20044;-70
2023/04/29 10:58:43;;;;;;;1.80;0.90;;;15.20;78.30;;;;;;5095652;28;20044;-70
2023/04/29 11:01:12;;;;;;;1.33;0.80;;;15.20;78.20;;;;;;5113696;28;20043;-70
2023/04/29 11:03:48;;;;;;;1.00;0.90;;;15.20;78.20;;;;;;5114169;28;20048;-70
2023/04/29 11:06:15;;;;;;;1.20;0.88;;;15.20;78.00;;;;;;5096224;28;20043;-70
2023/04/29 11:08:42;;;;;;;0.80;0.80;;;15.30;78.00;;;;;;5114171;28;20048;-70
2023/04/29 11:11:08;;;;;;;0.65;0.47;;;15.30;77.90;;;;;;5114517;28;20044;-70
2023/04/29 11:13:38;;;;;;;0.82;0.75;;;15.40;77.70;;;;;;5094459;28;20500;-69
2023/04/29 11:16:05;;;;;;;0.70;0.70;;;15.40;77.60;;;;;;5114694;28;20044;-69
2023/04/29 11:18:33;;;;;;;0.85;0.70;;;15.50;77.60;;;;;;5114194;28;20051;-69
2023/04/29 11:21:14;;;;;;;0.95;0.77;;;15.50;77.40;;;;;;5114428;28;20039;-69
2023/04/29 11:23:41;;;;;;;0.80;0.70;;;15.60;77.20;;;;;;5093723;28;20040;-70
2023/04/29 11:26:07;;;;;;;0.90;0.85;;;15.70;77.20;;;;;;5094597;28;20044;-71
2023/04/29 11:28:33;;;;;;;0.77;0.52;;;15.80;77.10;;;;;;5114180;28;20092;-69
2023/04/29 11:30:59;;;;;;;0.90;0.80;;;15.90;76.70;;;;;;5114023;28;20043;-71
2023/04/29 11:33:26;;;;;;;0.80;0.60;;;16.10;76.40;;;;;;5094391;28;20112;-69
2023/04/29 11:35:53;;;;;;;0.60;0.60;;;16.20;76.00;;;;;;5114022;28;20107;-69
2023/04/29 11:38:24;;;;;;;0.60;0.60;;;16.30;76.30;;;;;;5113979;28;20081;-69
2023/04/29 11:40:50;;;;;;;0.90;0.88;;;16.40;75.60;;;;;;5113956;28;20129;-69
2023/04/29 11:43:17;;;;;;;0.70;0.60;;;16.40;75.50;;;;;;5114069;28;20483;-69
2023/04/29 11:45:45;;;;;;;0.65;0.63;;;16.40;75.40;;;;;;5113327;28;20126;-69
2023/04/29 11:48:18;;;;;;;0.68;0.63;;;16.40;75.40;;;;;;5113744;28;20043;-70
2023/04/29 11:50:46;;;;;;;0.82;0.60;;;16.40;75.30;;;;;;5077310;28;20139;-69
2023/04/29 11:53:11;;;;;;;0.60;0.60;;;16.40;75.60;;;;;;5113484;28;20111;-69
2023/04/29 11:55:38;;;;;;;0.73;0.70;;;16.70;75.30;;;;;;5113910;28;20043;-69
2023/04/29 11:58:04;;;;;;;0.73;0.50;;;16.70;74.90;;;;;;5113357;28;20054;-69
2023/04/29 12:00:30;;;;;;;1.20;1.00;;;16.70;74.80;;;;;;5095082;28;20047;-69
2023/04/29 12:02:57;;;;;;;1.10;0.65;;;16.70;74.70;;;;;;5113449;28;20473;-71
2023/04/29 12:05:25;;;;;;;0.90;0.82;;;16.70;74.90;;;;;;5113642;28;20039;-68
2023/04/29 12:07:51;;;;;;;0.60;0.60;;;16.70;75.10;;;;;;5113876;28;20036;-69
2023/04/29 12:10:17;;;;;;;0.70;0.60;;;16.70;75.00;;;;;;5113892;28;20044;-69
2023/04/29 12:12:44;;;;;;;0.50;0.40;;;16.70;75.00;;;;;;5113198;28;20130;-69
2023/04/29 12:15:10;;;;;;;0.70;0.70;;;16.60;75.20;;;;;;5113674;28;20505;-69
2023/04/29 12:17:37;;;;;;;0.70;0.70;;;16.60;75.40;;;;;;5093549;28;20044;-68
2023/04/29 12:20:03;;;;;;;0.60;0.60;;;16.50;75.40;;;;;;5092876;28;20489;-68
2023/04/29 12:22:31;;;;;;;0.77;0.68;;;16.60;75.90;;;;;;5112920;28;20062;-68
2023/04/29 12:24:57;;;;;;;0.93;0.80;;;16.60;75.20;;;;;;5113014;28;20127;-68
2023/04/29 12:27:23;;;;;;;0.57;0.57;;;16.70;75.00;;;;;;5112944;28;20468;-68
2023/04/29 12:29:51;;;;;;;0.73;0.70;;;16.90;74.70;;;;;;5094628;28;20039;-68
2023/04/29 12:32:20;;;;;;;0.82;0.70;;;17.10;74.10;;;;;;5112924;28;20047;-69
2023/04/29 12:34:46;;;;;;;1.23;0.80;;;17.30;73.40;;;;;;5113121;28;20079;-69
2023/04/29 12:37:14;;;;;;;0.80;0.70;;;17.40;73.20;;;;;;5113487;28;20063;-69
2023/04/29 12:39:40;;;;;;;1.38;0.60;;;17.30;73.00;;;;;;5112894;28;20041;-68
2023/04/29 12:42:13;;;;;;;1.98;0.90;;;17.20;73.10;;;;;;5077949;28;20050;-69
2023/04/29 12:44:39;;;;;;;0.95;0.85;;;17.20;73.20;;;;;;5109718;28;20488;-68
2023/04/29 12:47:10;;;;;;;1.27;1.00;;;17.10;73.30;;;;;;5113387;28;20127;-68